Time;durP1;ratioP1;P1;durP2;ratioP2;P2;SDS_P1;SDS_P2;PMS_P1;PMS_P2;Temp;Humidity;BMP_temperature;BMP_pressure;BME280_temperature;BME280_humidity;BME280_pressure;Samples;Min_cycle;Max_cycle;Signal;HPM_P1;HPM_P2
2023/09/09 00:01:29;;;;;;;17.00;15.15;;;20.00;99.90;;;;;;4963721;28;20058;-62
2023/09/09 00:03:58;;;;;;;20.40;16.10;;;19.90;99.90;;;;;;4965010;28;20054;-61
2023/09/09 00:06:24;;;;;;;17.73;15.27;;;19.90;99.90;;;;;;4968342;28;20061;-59
2023/09/09 00:08:49;;;;;;;15.23;12.73;;;19.90;99.90;;;;;;4999850;28;20042;-59
2023/09/09 00:11:15;;;;;;;16.80;13.75;;;19.90;99.90;;;;;;5003554;28;20053;-58
2023/09/09 00:13:41;;;;;;;14.23;12.50;;;19.80;99.90;;;;;;5001553;28;20058;-59
2023/09/09 00:16:08;;;;;;;14.82;12.07;;;19.70;99.90;;;;;;5002105;28;20532;-58
2023/09/09 00:18:34;;;;;;;16.08;11.82;;;19.70;99.90;;;;;;5003005;28;20085;-61
2023/09/09 00:21:00;;;;;;;14.57;12.85;;;19.70;99.90;;;;;;5000689;28;20070;-57
2023/09/09 00:23:26;;;;;;;15.60;12.35;;;19.60;99.90;;;;;;5001704;28;20045;-59
2023/09/09 00:25:51;;;;;;;14.00;12.15;;;19.60;99.90;;;;;;5002465;28;20072;-57
2023/09/09 00:28:17;;;;;;;13.70;12.00;;;19.70;99.90;;;;;;5001460;28;20053;-61
2023/09/09 00:30:43;;;;;;;14.43;12.48;;;19.60;99.90;;;;;;5002732;28;20455;-60
2023/09/09 00:33:09;;;;;;;13.52;12.13;;;19.70;99.90;;;;;;4984430;28;20101;-61
2023/09/09 00:35:38;;;;;;;13.80;12.10;;;19.70;99.90;;;;;;4982642;28;20129;-61
2023/09/09 00:38:08;;;;;;;15.32;11.63;;;19.70;99.90;;;;;;4982155;28;20093;-58
2023/09/09 00:40:34;;;;;;;13.35;11.48;;;19.60;99.90;;;;;;4982834;28;20142;-59
2023/09/09 00:43:00;;;;;;;15.68;12.25;;;19.60;99.90;;;;;;4983885;28;20598;-60
2023/09/09 00:45:27;;;;;;;13.90;12.40;;;19.60;99.90;;;;;;4982161;28;20129;-59
2023/09/09 00:47:53;;;;;;;14.15;12.65;;;19.60;99.90;;;;;;4983336;28;20056;-61
2023/09/09 00:50:19;;;;;;;13.70;12.18;;;19.60;99.90;;;;;;4982720;28;20045;-60
2023/09/09 00:52:46;;;;;;;13.50;11.57;;;19.60;99.90;;;;;;4982932;28;20061;-62
2023/09/09 00:55:12;;;;;;;13.48;11.80;;;19.50;99.90;;;;;;4979606;28;20043;-62
2023/09/09 00:57:38;;;;;;;13.10;11.52;;;19.50;99.90;;;;;;4973359;28;20042;-57
2023/09/09 01:00:09;;;;;;;12.98;11.45;;;19.50;99.90;;;;;;4983066;28;20467;-61
2023/09/09 01:02:39;;;;;;;14.35;12.52;;;19.50;99.90;;;;;;4982707;28;20659;-60
2023/09/09 01:05:06;;;;;;;13.25;11.88;;;19.40;99.90;;;;;;5052276;23;20077;-58
2023/09/09 01:08:01;;;;;;;13.88;12.45;;;19.40;99.90;;;;;;4966743;28;20047;-58
2023/09/09 01:10:27;;;;;;;12.85;11.45;;;19.30;99.90;;;;;;4957053;28;20393;-57
2023/09/09 01:12:53;;;;;;;13.27;11.90;;;19.30;99.90;;;;;;4982054;28;20078;-57
2023/09/09 01:15:19;;;;;;;13.90;11.73;;;19.30;99.90;;;;;;4983969;28;20057;-59
2023/09/09 01:17:45;;;;;;;13.75;12.30;;;19.30;99.90;;;;;;4983657;28;20054;-57
2023/09/09 01:20:15;;;;;;;13.65;12.25;;;19.20;99.90;;;;;;4983074;28;20492;-58
2023/09/09 01:22:43;;;;;;;13.80;12.00;;;19.20;99.90;;;;;;4983417;28;20048;-58
2023/09/09 01:25:12;;;;;;;13.63;12.23;;;19.20;99.90;;;;;;4984254;28;20365;-56
2023/09/09 01:27:38;;;;;;;15.32;11.95;;;19.20;99.90;;;;;;4982471;28;20069;-59
2023/09/09 01:30:05;;;;;;;13.90;11.43;;;19.10;99.90;;;;;;4983597;28;20066;-57
2023/09/09 01:32:31;;;;;;;13.18;11.80;;;19.10;99.90;;;;;;4985480;28;20074;-58
2023/09/09 01:34:56;;;;;;;13.52;12.10;;;19.20;99.90;;;;;;4985569;28;20058;-58
2023/09/09 01:37:22;;;;;;;14.00;12.68;;;19.10;99.90;;;;;;4986040;28;20054;-58
2023/09/09 01:39:48;;;;;;;15.25;13.38;;;19.10;99.90;;;;;;4987550;28;20492;-58
2023/09/09 01:42:15;;;;;;;15.68;13.73;;;19.10;99.90;;;;;;4987260;28;20146;-58
2023/09/09 01:44:43;;;;;;;15.60;13.43;;;19.10;99.90;;;;;;4985863;28;20038;-58
2023/09/09 01:47:09;;;;;;;14.75;13.27;;;19.10;99.90;;;;;;4987244;28;20100;-57
2023/09/09 01:49:35;;;;;;;14.43;13.02;;;19.10;99.90;;;;;;4986698;28;20404;-58
2023/09/09 01:52:01;;;;;;;14.98;13.30;;;19.10;99.90;;;;;;4986045;28;20053;-59
2023/09/09 01:54:26;;;;;;;18.08;14.07;;;19.10;99.90;;;;;;4986561;28;20125;-57
2023/09/09 01:56:52;;;;;;;15.20;13.70;;;19.10;99.90;;;;;;4978471;28;20085;-59
2023/09/09 01:59:17;;;;;;;15.70;14.05;;;19.00;99.90;;;;;;4967392;28;20053;-57
2023/09/09 02:01:43;;;;;;;16.27;13.45;;;19.00;99.90;;;;;;4966344;28;20133;-58
2023/09/09 02:04:09;;;;;;;18.50;14.35;;;19.00;99.90;;;;;;4967798;28;20046;-57
2023/09/09 02:06:34;;;;;;;15.00;13.45;;;19.00;99.90;;;;;;4984817;28;20425;-58
2023/09/09 02:09:01;;;;;;;17.05;15.35;;;18.80;99.90;;;;;;4985130;28;20046;-58
2023/09/09 02:11:26;;;;;;;17.30;15.55;;;18.80;99.90;;;;;;4985494;28;20269;-57
2023/09/09 02:13:52;;;;;;;16.35;14.52;;;18.80;99.90;;;;;;4995963;28;20149;-58
2023/09/09 02:16:18;;;;;;;16.45;14.38;;;18.70;99.90;;;;;;4986829;28;20093;-58
2023/09/09 02:18:44;;;;;;;19.35;15.95;;;18.70;99.90;;;;;;4998234;28;20054;-59
2023/09/09 02:21:09;;;;;;;17.15;15.32;;;18.60;99.90;;;;;;4998421;28;20054;-58
2023/09/09 02:23:39;;;;;;;17.05;15.27;;;18.60;99.90;;;;;;4994710;28;20459;-59
2023/09/09 02:26:04;;;;;;;16.70;15.00;;;18.60;99.90;;;;;;4985088;28;20054;-57
2023/09/09 02:28:30;;;;;;;19.92;16.13;;;18.70;99.90;;;;;;4984475;28;20056;-58
2023/09/09 02:30:56;;;;;;;18.80;16.50;;;18.60;99.90;;;;;;4985004;28;20050;-57
2023/09/09 02:33:22;;;;;;;17.20;15.48;;;18.60;99.90;;;;;;4987757;28;20046;-58
2023/09/09 02:35:48;;;;;;;19.38;15.25;;;18.60;99.90;;;;;;4992907;28;20404;-58
2023/09/09 02:38:13;;;;;;;17.50;15.63;;;18.60;99.90;;;;;;4984669;28;20109;-58
2023/09/09 02:40:39;;;;;;;19.95;15.15;;;18.60;99.90;;;;;;4985507;28;20133;-57
2023/09/09 02:43:04;;;;;;;18.38;16.35;;;18.60;99.90;;;;;;4985279;28;20084;-56
2023/09/09 02:45:30;;;;;;;16.98;14.98;;;18.60;99.90;;;;;;4984753;28;20043;-57
2023/09/09 02:47:56;;;;;;;18.63;15.38;;;18.60;99.90;;;;;;4985469;28;20050;-57
2023/09/09 02:50:21;;;;;;;17.20;15.40;;;18.60;99.90;;;;;;4985752;28;20514;-57
2023/09/09 02:52:50;;;;;;;19.33;16.85;;;18.60;99.90;;;;;;4984737;28;20117;-58
2023/09/09 02:55:16;;;;;;;19.38;17.33;;;18.60;99.90;;;;;;4987405;28;20073;-58
2023/09/09 02:57:41;;;;;;;18.55;16.60;;;18.70;99.90;;;;;;4994116;28;20652;-58
2023/09/09 03:00:07;;;;;;;18.45;16.55;;;18.60;99.90;;;;;;4985345;28;20049;-58
2023/09/09 03:02:33;;;;;;;18.38;16.58;;;18.60;99.90;;;;;;4985432;28;20039;-57
2023/09/09 03:04:59;;;;;;;21.35;17.33;;;18.60;99.90;;;;;;4985349;28;20100;-58
2023/09/09 03:07:25;;;;;;;20.88;17.77;;;18.60;99.90;;;;;;4983940;28;20749;-57
2023/09/09 03:09:50;;;;;;;21.77;18.02;;;18.60;99.90;;;;;;4984774;28;20137;-61
2023/09/09 03:12:20;;;;;;;19.45;17.45;;;18.60;99.90;;;;;;4985170;28;20042;-57
2023/09/09 03:14:47;;;;;;;19.52;17.63;;;18.50;99.90;;;;;;4985524;28;20046;-58
2023/09/09 03:17:13;;;;;;;20.10;17.80;;;18.50;99.90;;;;;;4985004;28;20066;-60
2023/09/09 03:19:39;;;;;;;20.50;18.30;;;18.50;99.90;;;;;;4984372;28;20050;-57
2023/09/09 03:22:05;;;;;;;20.50;18.50;;;18.50;99.90;;;;;;4984596;28;20426;-59
2023/09/09 03:24:30;;;;;;;22.55;19.27;;;18.50;99.90;;;;;;4985463;28;20081;-59
2023/09/09 03:26:56;;;;;;;22.40;20.20;;;18.50;99.90;;;;;;4984702;28;20441;-59
2023/09/09 03:29:21;;;;;;;22.08;19.77;;;18.40;99.90;;;;;;4984269;28;20466;-59
2023/09/09 03:31:47;;;;;;;21.10;18.90;;;18.40;99.90;;;;;;4984508;28;20042;-59
2023/09/09 03:34:13;;;;;;;21.55;18.63;;;18.40;99.90;;;;;;4985041;28;20057;-59
2023/09/09 03:36:38;;;;;;;23.85;19.38;;;18.40;99.90;;;;;;4983535;28;20038;-59
2023/09/09 03:39:04;;;;;;;22.55;20.15;;;18.40;99.90;;;;;;4984856;28;20104;-59
2023/09/09 03:41:30;;;;;;;20.92;18.77;;;18.30;99.90;;;;;;4984934;28;20034;-59
2023/09/09 03:43:56;;;;;;;21.40;19.10;;;18.30;99.90;;;;;;4985265;28;20042;-58
2023/09/09 03:46:21;;;;;;;24.10;19.33;;;18.30;99.90;;;;;;4984975;28;20048;-57
2023/09/09 03:48:47;;;;;;;22.55;20.00;;;18.30;99.90;;;;;;4984454;28;20050;-57
2023/09/09 03:51:13;;;;;;;21.80;19.50;;;18.30;99.90;;;;;;4984014;28;20038;-58
2023/09/09 03:53:38;;;;;;;22.55;19.92;;;18.30;99.90;;;;;;5002757;28;20042;-59
2023/09/09 03:56:04;;;;;;;22.45;20.17;;;18.30;99.90;;;;;;4990068;28;20046;-59
2023/09/09 03:58:30;;;;;;;21.95;19.75;;;18.30;99.90;;;;;;4993080;28;20077;-58
2023/09/09 04:01:07;;;;;;;23.60;19.60;;;18.30;99.90;;;;;;5003499;28;20072;-58
2023/09/09 04:03:34;;;;;;;22.20;20.00;;;18.30;99.90;;;;;;4990384;28;20180;-58
2023/09/09 04:06:06;;;;;;;23.48;19.88;;;18.30;99.90;;;;;;4983204;28;20448;-58
2023/09/09 04:08:35;;;;;;;24.08;21.60;;;18.30;99.90;;;;;;4984726;28;20065;-58
2023/09/09 04:11:01;;;;;;;28.38;25.33;;;18.20;99.90;;;;;;4989845;28;20060;-59
2023/09/09 04:13:27;;;;;;;25.50;22.92;;;18.10;99.90;;;;;;5004347;28;20773;-57
2023/09/09 04:15:57;;;;;;;28.65;25.55;;;18.00;99.90;;;;;;4991196;28;20034;-59
2023/09/09 04:18:24;;;;;;;30.15;26.88;;;17.90;99.90;;;;;;5001313;28;20384;-58
2023/09/09 04:20:50;;;;;;;29.73;26.45;;;17.90;99.90;;;;;;5003201;28;20049;-57
2023/09/09 04:23:17;;;;;;;30.90;27.33;;;18.00;99.90;;;;;;5003738;28;20120;-58
2023/09/09 04:25:43;;;;;;;30.85;27.60;;;18.00;99.90;;;;;;5002942;28;20038;-58
2023/09/09 04:28:10;;;;;;;31.13;27.92;;;18.10;99.90;;;;;;5002358;28;20046;-58
2023/09/09 04:30:38;;;;;;;30.48;27.27;;;18.10;99.90;;;;;;5002135;28;20042;-58
2023/09/09 04:33:08;;;;;;;31.15;27.85;;;18.10;99.90;;;;;;5002428;28;20049;-57
2023/09/09 04:35:34;;;;;;;30.85;27.55;;;18.10;99.90;;;;;;5001406;28;20061;-58
2023/09/09 04:38:00;;;;;;;31.52;28.23;;;18.20;99.90;;;;;;5002442;28;20357;-58
2023/09/09 04:40:26;;;;;;;32.00;28.65;;;18.20;99.90;;;;;;4990949;28;20127;-58
2023/09/09 04:42:52;;;;;;;31.38;28.00;;;18.20;99.90;;;;;;4983238;28;20074;-58
2023/09/09 04:45:19;;;;;;;31.45;28.23;;;18.20;99.90;;;;;;4982791;28;20061;-58
2023/09/09 04:47:44;;;;;;;30.48;27.10;;;18.20;99.90;;;;;;4986045;28;20046;-58
2023/09/09 04:50:10;;;;;;;30.23;27.02;;;18.20;99.90;;;;;;5002743;28;20419;-59
2023/09/09 04:52:36;;;;;;;32.63;29.10;;;18.20;99.90;;;;;;5002179;28;20042;-58
2023/09/09 04:55:03;;;;;;;33.05;29.45;;;18.20;99.90;;;;;;5001141;28;20050;-58
2023/09/09 04:57:28;;;;;;;33.70;29.00;;;18.20;99.90;;;;;;4994208;28;20049;-58
2023/09/09 04:59:54;;;;;;;33.83;30.23;;;18.30;99.90;;;;;;5003034;28;20045;-58
2023/09/09 05:02:20;;;;;;;33.08;29.48;;;18.20;99.90;;;;;;5003740;28;20121;-58
2023/09/09 05:04:46;;;;;;;32.28;28.63;;;18.20;99.90;;;;;;5003275;28;20064;-58
2023/09/09 05:07:12;;;;;;;33.15;29.73;;;18.20;99.90;;;;;;5003809;28;20459;-58
2023/09/09 05:09:37;;;;;;;34.00;30.48;;;18.20;99.90;;;;;;5005877;28;20046;-58
2023/09/09 05:12:03;;;;;;;33.50;29.98;;;18.20;99.90;;;;;;5007183;28;20407;-58
2023/09/09 05:14:29;;;;;;;34.30;29.42;;;18.30;99.90;;;;;;4993503;28;20053;-59
2023/09/09 05:16:54;;;;;;;33.28;29.83;;;18.30;99.90;;;;;;5002851;28;20105;-60
2023/09/09 05:19:22;;;;;;;34.97;30.95;;;18.20;99.90;;;;;;4986555;28;20046;-61
2023/09/09 05:21:48;;;;;;;33.17;29.60;;;18.30;99.90;;;;;;4986556;28;20050;-59
2023/09/09 05:24:14;;;;;;;31.60;28.20;;;18.40;99.90;;;;;;4987438;28;20358;-58
2023/09/09 05:26:40;;;;;;;33.45;29.55;;;18.30;99.90;;;;;;4986405;28;20162;-59
2023/09/09 05:29:06;;;;;;;33.28;29.58;;;18.30;99.90;;;;;;4987196;28;20077;-58
2023/09/09 05:31:31;;;;;;;33.00;29.42;;;18.40;99.90;;;;;;4986801;28;20499;-57
2023/09/09 05:33:57;;;;;;;34.67;29.17;;;18.40;99.90;;;;;;4986338;28;20388;-58
2023/09/09 05:36:23;;;;;;;33.08;29.65;;;18.40;99.90;;;;;;4985405;28;20575;-59
2023/09/09 05:38:48;;;;;;;35.20;31.48;;;18.50;99.90;;;;;;4987143;28;20034;-59
2023/09/09 05:41:14;;;;;;;33.00;29.60;;;18.50;99.90;;;;;;4986802;28;20081;-58
2023/09/09 05:43:39;;;;;;;35.50;31.67;;;18.50;99.90;;;;;;4986400;28;20157;-59
2023/09/09 05:46:05;;;;;;;35.47;31.63;;;18.60;99.90;;;;;;4994304;28;20053;-58
2023/09/09 05:48:31;;;;;;;35.83;31.27;;;18.70;99.90;;;;;;5006334;28;20070;-58
2023/09/09 05:50:56;;;;;;;36.47;32.47;;;18.80;99.90;;;;;;5005324;28;20078;-58
2023/09/09 05:53:22;;;;;;;36.75;31.52;;;18.80;99.90;;;;;;5005772;28;20088;-58
2023/09/09 05:55:48;;;;;;;37.25;31.70;;;18.90;99.90;;;;;;4999918;28;20073;-59
2023/09/09 05:58:14;;;;;;;37.17;32.60;;;18.90;99.90;;;;;;4993493;28;20211;-57
2023/09/09 06:00:40;;;;;;;36.60;32.70;;;19.00;99.90;;;;;;4985699;28;20639;-58
2023/09/09 06:03:05;;;;;;;34.35;30.75;;;19.00;99.90;;;;;;4985283;28;20100;-58
2023/09/09 06:05:31;;;;;;;34.15;30.65;;;19.10;99.90;;;;;;4984864;28;20104;-58
2023/09/09 06:07:57;;;;;;;35.88;31.75;;;19.10;99.90;;;;;;4986303;28;20062;-58
2023/09/09 06:10:23;;;;;;;37.42;30.77;;;19.30;99.90;;;;;;5001137;28;20057;-58
2023/09/09 06:12:49;;;;;;;37.40;31.98;;;19.30;99.90;;;;;;4986219;28;20400;-57
2023/09/09 06:15:15;;;;;;;34.35;30.65;;;19.40;99.90;;;;;;4986254;28;20081;-59
2023/09/09 06:17:41;;;;;;;32.88;29.00;;;19.50;99.90;;;;;;5001116;28;20101;-58
2023/09/09 06:20:08;;;;;;;34.00;30.48;;;19.60;99.90;;;;;;4984992;28;20058;-59
2023/09/09 06:22:34;;;;;;;34.53;30.48;;;19.60;99.90;;;;;;4985768;28;20051;-57
2023/09/09 06:25:01;;;;;;;33.90;29.75;;;19.70;99.90;;;;;;4985230;28;20069;-58
2023/09/09 06:27:26;;;;;;;34.00;28.65;;;19.80;99.90;;;;;;4985090;28;20039;-58
2023/09/09 06:29:52;;;;;;;33.10;29.38;;;19.80;99.90;;;;;;4985758;28;20069;-58
2023/09/09 06:32:18;;;;;;;31.40;28.20;;;19.90;99.90;;;;;;4988997;28;20042;-58
2023/09/09 06:34:43;;;;;;;31.83;28.45;;;20.00;99.90;;;;;;5005183;28;20415;-58
2023/09/09 06:37:10;;;;;;;30.67;27.45;;;20.20;99.90;;;;;;4996272;28;20078;-58
2023/09/09 06:39:36;;;;;;;35.67;28.67;;;20.40;99.90;;;;;;4984127;28;20042;-58
2023/09/09 06:42:01;;;;;;;30.58;26.73;;;20.80;99.90;;;;;;4979975;28;20049;-58
2023/09/09 06:44:27;;;;;;;30.25;27.15;;;21.30;99.90;;;;;;5002960;28;20045;-58
2023/09/09 06:46:53;;;;;;;28.58;25.55;;;21.90;99.90;;;;;;5004979;28;20133;-58
2023/09/09 06:49:18;;;;;;;29.60;26.40;;;22.40;99.90;;;;;;5005522;28;20069;-58
2023/09/09 06:51:44;;;;;;;27.75;24.67;;;22.90;99.90;;;;;;5003963;28;20493;-58
2023/09/09 06:54:09;;;;;;;28.48;24.77;;;23.10;99.90;;;;;;4992122;28;20420;-58
2023/09/09 06:56:35;;;;;;;27.80;24.92;;;23.30;99.90;;;;;;4996412;28;20081;-58
2023/09/09 06:59:01;;;;;;;28.63;25.58;;;23.50;99.90;;;;;;4985936;28;20058;-58
2023/09/09 07:01:26;;;;;;;27.13;24.23;;;23.70;99.90;;;;;;4985234;28;20050;-58
2023/09/09 07:03:52;;;;;;;30.90;24.80;;;23.90;99.90;;;;;;4998827;28;20050;-58
2023/09/09 07:06:17;;;;;;;24.73;22.13;;;24.10;99.90;;;;;;4983457;28;20054;-58
2023/09/09 07:08:43;;;;;;;26.73;23.02;;;24.20;99.90;;;;;;4990515;28;20550;-58
2023/09/09 07:11:09;;;;;;;25.73;21.42;;;24.40;99.90;;;;;;4990537;28;20058;-59
2023/09/09 07:13:34;;;;;;;26.85;23.23;;;24.60;99.90;;;;;;4985349;28;20438;-58
2023/09/09 07:16:00;;;;;;;26.23;23.42;;;24.50;99.90;;;;;;4995923;28;20042;-59
2023/09/09 07:18:26;;;;;;;26.17;22.40;;;24.40;99.90;;;;;;4987295;28;20088;-58
2023/09/09 07:20:51;;;;;;;25.73;21.55;;;24.50;99.90;;;;;;4991367;28;20046;-58
2023/09/09 07:23:18;;;;;;;26.35;23.48;;;24.90;99.90;;;;;;4996069;28;20180;-59
2023/09/09 07:25:44;;;;;;;26.13;23.20;;;24.80;99.90;;;;;;4994146;28;20049;-58
2023/09/09 07:28:11;;;;;;;25.23;22.13;;;24.80;99.90;;;;;;4995005;28;20033;-59
2023/09/09 07:30:37;;;;;;;24.67;22.17;;;24.90;99.90;;;;;;4993986;28;20050;-59
2023/09/09 07:33:03;;;;;;;24.25;21.70;;;25.10;99.90;;;;;;4992412;28;20048;-59
2023/09/09 07:35:29;;;;;;;24.52;21.73;;;25.30;99.90;;;;;;4987399;28;20463;-58
2023/09/09 07:37:55;;;;;;;26.48;23.27;;;25.30;99.90;;;;;;4984130;28;20441;-58
2023/09/09 07:40:20;;;;;;;25.20;22.05;;;25.20;99.90;;;;;;4967092;28;20133;-59
2023/09/09 07:42:46;;;;;;;25.58;22.73;;;24.90;99.90;;;;;;5001696;28;20056;-58
2023/09/09 07:45:12;;;;;;;24.98;22.38;;;24.40;99.90;;;;;;5002406;28;20077;-58
2023/09/09 07:47:37;;;;;;;25.30;22.70;;;24.00;99.90;;;;;;4987055;28;20121;-59
2023/09/09 07:50:03;;;;;;;25.23;22.52;;;23.70;99.90;;;;;;4991725;28;20038;-59
2023/09/09 07:52:29;;;;;;;25.83;23.08;;;23.50;99.90;;;;;;4994297;28;20042;-60
2023/09/09 07:54:55;;;;;;;25.88;23.27;;;23.30;99.90;;;;;;4992308;28;20053;-59
2023/09/09 07:57:20;;;;;;;25.88;22.52;;;23.20;99.90;;;;;;4987972;28;20038;-60
2023/09/09 07:59:47;;;;;;;26.40;23.13;;;23.20;99.90;;;;;;4992935;28;20103;-60
2023/09/09 08:02:13;;;;;;;23.98;21.63;;;23.20;99.90;;;;;;4993879;28;20124;-58
2023/09/09 08:04:39;;;;;;;30.00;23.17;;;23.20;99.90;;;;;;4993480;28;20136;-59
2023/09/09 08:07:05;;;;;;;25.30;22.48;;;23.30;99.90;;;;;;4993611;28;20104;-60
2023/09/09 08:09:32;;;;;;;26.45;23.67;;;23.30;99.90;;;;;;4992515;28;20053;-58
2023/09/09 08:11:58;;;;;;;25.05;22.50;;;23.40;99.90;;;;;;4982394;28;20424;-61
2023/09/09 08:14:23;;;;;;;26.55;22.98;;;23.50;99.90;;;;;;4983604;28;20058;-59
2023/09/09 08:16:50;;;;;;;27.05;24.20;;;23.60;99.90;;;;;;4984782;28;20081;-60
2023/09/09 08:19:16;;;;;;;26.67;23.73;;;23.70;99.90;;;;;;4983576;28;20057;-59
2023/09/09 08:21:41;;;;;;;28.00;25.10;;;23.80;99.90;;;;;;4982467;28;20046;-58
2023/09/09 08:24:07;;;;;;;28.25;25.35;;;23.80;99.90;;;;;;4983602;28;20042;-59
2023/09/09 08:26:33;;;;;;;28.10;25.35;;;23.80;99.90;;;;;;4984481;28;20053;-60
2023/09/09 08:28:58;;;;;;;27.05;24.45;;;23.90;99.90;;;;;;4984013;28;20081;-59
2023/09/09 08:31:24;;;;;;;27.38;24.45;;;23.90;99.90;;;;;;4983248;28;20078;-58
2023/09/09 08:33:50;;;;;;;28.20;23.80;;;24.00;99.90;;;;;;4983936;28;20400;-59
2023/09/09 08:36:16;;;;;;;25.15;22.50;;;24.10;99.90;;;;;;4983340;28;20042;-58
2023/09/09 08:38:42;;;;;;;29.67;22.35;;;24.30;99.90;;;;;;4983353;28;20053;-58
2023/09/09 08:41:31;;;;;;;24.67;22.08;;;24.40;99.90;;;;;;4984337;28;20050;-58
2023/09/09 08:44:14;;;;;;;26.38;23.45;;;24.50;99.90;;;;;;4986589;28;20046;-59
2023/09/09 08:46:40;;;;;;;26.42;22.20;;;24.60;99.90;;;;;;4986551;28;20038;-58
2023/09/09 08:49:08;;;;;;;24.85;21.85;;;24.70;99.90;;;;;;4986456;28;20042;-58
2023/09/09 08:51:55;;;;;;;26.02;23.25;;;24.80;99.90;;;;;;4985699;28;20054;-58
2023/09/09 08:54:21;;;;;;;26.70;23.80;;;25.00;99.90;;;;;;4988320;28;20065;-58
2023/09/09 08:56:48;;;;;;;25.58;21.42;;;25.20;99.90;;;;;;4998265;28;20038;-58
2023/09/09 08:59:14;;;;;;;22.75;20.40;;;25.70;99.90;;;;;;4987740;28;20075;-58
2023/09/09 09:01:40;;;;;;;25.40;19.88;;;26.40;99.90;;;;;;4994027;28;20064;-58
2023/09/09 09:04:06;;;;;;;23.10;19.50;;;26.90;99.90;;;;;;4996775;28;20060;-59
2023/09/09 09:06:34;;;;;;;24.98;18.30;;;27.30;99.60;;;;;;4991943;28;20551;-58
2023/09/09 09:08:59;;;;;;;24.77;17.80;;;27.60;99.00;;;;;;4989894;28;20086;-57
2023/09/09 09:11:25;;;;;;;21.67;16.98;;;27.80;98.60;;;;;;4995358;28;20078;-57
2023/09/09 09:13:51;;;;;;;21.40;17.40;;;28.00;98.90;;;;;;4986761;28;20056;-57
2023/09/09 09:16:18;;;;;;;20.40;18.20;;;28.20;98.60;;;;;;4986174;28;20917;-57
2023/09/09 09:18:43;;;;;;;23.88;19.15;;;28.30;97.80;;;;;;4986725;28;20057;-56
2023/09/09 09:21:10;;;;;;;20.27;18.20;;;28.20;97.50;;;;;;4986478;28;20042;-59
2023/09/09 09:23:43;;;;;;;21.00;17.30;;;28.20;97.90;;;;;;4989376;28;20064;-58
2023/09/09 09:26:35;;;;;;;21.73;17.30;;;28.30;97.80;;;;;;4998086;28;20112;-58
2023/09/09 09:29:04;;;;;;;19.58;17.05;;;28.40;97.90;;;;;;5001531;28;20134;-58
2023/09/09 09:31:30;;;;;;;19.52;16.67;;;28.50;97.60;;;;;;4990929;28;20125;-58
2023/09/09 09:33:58;;;;;;;23.52;18.50;;;28.70;97.60;;;;;;5005534;28;20441;-59
2023/09/09 09:36:25;;;;;;;21.70;18.50;;;28.70;97.40;;;;;;4996086;28;20054;-58
2023/09/09 09:38:52;;;;;;;22.48;20.00;;;28.80;97.20;;;;;;5002130;28;20136;-58
2023/09/09 09:41:19;;;;;;;21.13;18.38;;;28.70;97.20;;;;;;5006202;28;20081;-59
2023/09/09 09:43:47;;;;;;;21.92;17.45;;;28.80;97.30;;;;;;5005812;28;20092;-59
2023/09/09 09:46:21;;;;;;;21.67;17.45;;;28.70;97.50;;;;;;5006311;28;20088;-58
2023/09/09 09:48:47;;;;;;;24.52;19.98;;;28.80;97.60;;;;;;5006250;28;20448;-58
2023/09/09 09:51:13;;;;;;;19.85;17.25;;;28.80;97.70;;;;;;5004681;28;20046;-58
2023/09/09 09:53:48;;;;;;;23.85;18.80;;;28.80;97.60;;;;;;5006020;28;20045;-58
2023/09/09 09:56:15;;;;;;;22.10;15.88;;;28.80;97.50;;;;;;4999694;28;20053;-58
2023/09/09 09:58:46;;;;;;;19.50;15.35;;;28.80;97.30;;;;;;4989126;28;20127;-58
2023/09/09 10:01:12;;;;;;;17.52;15.75;;;28.90;97.20;;;;;;4986561;28;20064;-58
2023/09/09 10:03:55;;;;;;;17.15;14.77;;;28.90;96.60;;;;;;4999853;28;20656;-55
2023/09/09 10:06:33;;;;;;;19.13;15.80;;;28.90;96.30;;;;;;4994996;28;20049;-58
2023/09/09 10:09:18;;;;;;;17.55;13.75;;;28.90;96.80;;;;;;5006060;28;20058;-56
2023/09/09 10:11:53;;;;;;;19.38;14.15;;;29.10;96.70;;;;;;4991813;28;20081;-56
2023/09/09 10:14:23;;;;;;;18.52;15.20;;;29.20;96.80;;;;;;4990453;28;20046;-57
2023/09/09 10:16:52;;;;;;;19.15;15.50;;;29.30;96.60;;;;;;5003740;28;20050;-57
2023/09/09 10:19:19;;;;;;;16.15;14.10;;;29.40;96.70;;;;;;5005157;28;20081;-56
2023/09/09 10:21:46;;;;;;;16.95;13.48;;;29.60;96.40;;;;;;5005057;28;20045;-56
2023/09/09 10:24:14;;;;;;;16.80;13.63;;;29.60;96.10;;;;;;5004626;28;20085;-56
2023/09/09 10:26:40;;;;;;;17.02;13.40;;;29.60;95.70;;;;;;5005047;28;20055;-55
2023/09/09 10:29:06;;;;;;;16.13;13.80;;;29.60;96.20;;;;;;5003726;28;20133;-56
2023/09/09 10:31:34;;;;;;;15.70;11.88;;;29.80;96.30;;;;;;5003496;28;20064;-56
2023/09/09 10:34:02;;;;;;;16.33;13.15;;;29.90;96.30;;;;;;5003387;28;20083;-56
2023/09/09 10:36:29;;;;;;;20.83;13.57;;;30.00;95.60;;;;;;4991201;28;20054;-56
2023/09/09 10:38:58;;;;;;;17.20;13.77;;;30.10;95.50;;;;;;4985388;28;20046;-57
2023/09/09 10:41:24;;;;;;;14.15;12.77;;;30.10;95.70;;;;;;4984879;28;20046;-57
2023/09/09 10:43:50;;;;;;;12.80;10.48;;;30.20;95.70;;;;;;4985912;28;20060;-56
2023/09/09 10:46:15;;;;;;;14.00;11.02;;;30.30;95.90;;;;;;4985343;28;20081;-56
2023/09/09 10:48:44;;;;;;;14.50;10.85;;;30.30;95.30;;;;;;4985838;28;20607;-57
2023/09/09 10:51:13;;;;;;;11.40;10.20;;;30.40;95.40;;;;;;4991150;28;20404;-55
2023/09/09 10:53:39;;;;;;;13.63;10.82;;;30.30;95.10;;;;;;4994046;28;20033;-56
2023/09/09 10:56:16;;;;;;;14.00;9.82;;;30.30;95.10;;;;;;4997389;28;20038;-56
2023/09/09 10:58:44;;;;;;;13.82;10.07;;;30.30;95.30;;;;;;4988614;28;20058;-56
2023/09/09 11:01:22;;;;;;;11.90;9.32;;;30.40;95.10;;;;;;5000594;28;20056;-56
2023/09/09 11:03:48;;;;;;;12.18;8.88;;;30.40;95.10;;;;;;4985022;28;20088;-56
2023/09/09 11:06:28;;;;;;;12.70;9.20;;;30.30;95.30;;;;;;4992422;28;20485;-57
2023/09/09 11:08:55;;;;;;;11.77;9.25;;;30.50;94.90;;;;;;4985118;28;20137;-56
2023/09/09 11:11:25;;;;;;;11.45;9.52;;;30.50;95.00;;;;;;4984595;28;20039;-56
2023/09/09 11:13:59;;;;;;;12.85;9.93;;;30.50;95.30;;;;;;4985366;28;20669;-56
2023/09/09 11:16:25;;;;;;;;;;;30.50;95.30;;;;;;5001185;28;20042;-56
2023/09/09 11:18:55;;;;;;;12.05;8.88;;;30.70;95.30;;;;;;4986293;28;19968;-56
2023/09/09 11:21:24;;;;;;;10.55;9.27;;;30.70;95.20;;;;;;4985770;28;20053;-56
2023/09/09 11:23:51;;;;;;;12.15;9.30;;;30.70;95.00;;;;;;5004738;28;20046;-56
2023/09/09 11:26:16;;;;;;;13.18;10.52;;;30.70;94.80;;;;;;5002369;28;20048;-58
2023/09/09 11:28:45;;;;;;;11.73;9.10;;;30.60;94.60;;;;;;5004391;28;20050;-58
2023/09/09 11:31:16;;;;;;;14.20;9.25;;;30.60;94.80;;;;;;4961797;28;20101;-58
2023/09/09 11:33:42;;;;;;;15.70;9.25;;;30.60;94.80;;;;;;4984143;28;20049;-58
2023/09/09 11:36:08;;;;;;;12.18;9.48;;;30.70;94.30;;;;;;4983718;28;20042;-58
2023/09/09 11:38:34;;;;;;;10.55;9.25;;;30.70;94.20;;;;;;4984511;28;20109;-58
2023/09/09 11:41:00;;;;;;;11.35;9.80;;;30.60;94.20;;;;;;4984822;28;20130;-58
2023/09/09 11:43:26;;;;;;;14.38;10.70;;;30.60;94.80;;;;;;4994620;28;20050;-58
2023/09/09 11:45:53;;;;;;;14.88;10.40;;;30.50;95.40;;;;;;4999178;28;20219;-57
2023/09/09 11:48:19;;;;;;;12.70;10.13;;;30.70;95.40;;;;;;5001767;28;20041;-57
2023/09/09 11:50:46;;;;;;;15.07;9.32;;;30.80;95.10;;;;;;5001784;28;20081;-57
2023/09/09 11:53:12;;;;;;;13.05;9.40;;;31.00;94.90;;;;;;4986511;28;20042;-56
2023/09/09 11:55:38;;;;;;;13.40;8.85;;;31.00;94.50;;;;;;4997571;28;20034;-58
2023/09/09 11:58:05;;;;;;;10.75;9.07;;;31.00;94.40;;;;;;4992039;28;20046;-58
2023/09/09 12:00:31;;;;;;;13.32;9.50;;;30.90;94.50;;;;;;4983724;28;20042;-57
2023/09/09 12:02:56;;;;;;;15.02;8.63;;;30.90;94.50;;;;;;4984148;28;20048;-58
2023/09/09 12:05:30;;;;;;;17.98;10.88;;;30.90;94.60;;;;;;4983639;28;20073;-58
2023/09/09 12:07:58;;;;;;;13.93;10.48;;;31.00;94.30;;;;;;5002929;28;20168;-56
2023/09/09 12:10:27;;;;;;;12.90;9.43;;;30.80;93.90;;;;;;4989368;28;20042;-57
2023/09/09 12:12:53;;;;;;;14.18;10.32;;;30.70;94.40;;;;;;4984281;28;20050;-57
2023/09/09 12:15:19;;;;;;;14.88;11.02;;;30.70;94.60;;;;;;4990496;28;20512;-57
2023/09/09 12:17:45;;;;;;;13.65;10.95;;;30.90;94.80;;;;;;5003784;28;20038;-58
2023/09/09 12:20:11;;;;;;;18.13;11.32;;;31.00;94.80;;;;;;5002968;28;20045;-59
2023/09/09 12:22:43;;;;;;;19.02;10.45;;;30.90;94.60;;;;;;5003428;28;20574;-59
2023/09/09 12:25:27;;;;;;;11.32;9.80;;;30.80;94.90;;;;;;4990411;28;20058;-57
2023/09/09 12:27:53;;;;;;;14.05;10.35;;;30.90;95.20;;;;;;4981987;28;20516;-48